Lucas, Iowa
Current Conditions -  °F | °C
As of 5:55 AM on Monday 24 Nov 2014 (Local Time) from KCNC Reporting Station
Overcast Overcast  
Wind Chill: 18°   Ceiling: 2100
Heat Index: 30°   Visibility: 10mi
Dew Point: 23°   Wind: 18mph
Humidity: 75%   Direction: 290°WNW
Pressure: 29.45"   Gusts: 29mph
Location:  41.03°N, 93.46°W
Report Text: KCNC 241155Z AUTO 29016G25KT 10SM OVC021 M01/M05 A2945 RMK AO2
Loading
Personal Weather Stations






























Interactive Weather Map New forecast layout! Learn more

10-Day Weather Forecast

Advertisements
Track Severe Weather on mobile